WALL/BPN METAR and TAF weather

Enter ICAO airport designator
Station Type Date Time Source
WALL METAR 2019/12/02 22:00 UTC NOAA

WALL 022200Z 27002KT 9000 SCT018 26/25 Q1007


Station Type Date Time Source
WALL Decoded METAR 2019/12/02 22:00 UTC NOAA

Station name not available
Dec 02, 2019 - 05:00 PM EST / 2019.12.02 2200 UTC
Wind: from the W (270 degrees) at 2 MPH (2 KT):0
Visibility: 5 mile(s):0
Sky conditions: partly cloudy
Temperature: 78 F (26 C)
Dew Point: 77 F (25 C)
Relative Humidity: 94%
Pressure (altimeter): 29.74 in. Hg (1007 hPa)
ob: WALL 022200Z 27002KT 9000 SCT018 26/25 Q1007
cycle: 22

Station Type Date Time Source
WALL TAF 2019/12/10 18:00 UTC NOAA

TAF WALL 101700Z 1018/1124 36004KT 9000 SCT020
BECMG 1101/1103 FEW018CB PROB30
TEMPO 1103/1106 3000 TSRA

Example: see airport list